sensor_id;sensor_type;location;lat;lon;timestamp;P1;durP1;ratioP1;P2;durP2;ratioP2
15022;SDS011;19850;49.576;10.880;2023-03-04T00:02:36;11.17;;;8.97;;
15022;SDS011;19850;49.576;10.880;2023-03-04T00:06:39;10.97;;;9.17;;
15022;SDS011;19850;49.576;10.880;2023-03-04T00:10:42;11.63;;;9.30;;
15022;SDS011;19850;49.576;10.880;2023-03-04T00:14:45;11.33;;;9.20;;
15022;SDS011;19850;49.576;10.880;2023-03-04T00:18:49;11.47;;;8.47;;
15022;SDS011;19850;49.576;10.880;2023-03-04T00:22:52;11.63;;;9.07;;
15022;SDS011;19850;49.576;10.880;2023-03-04T00:26:55;11.40;;;9.10;;
15022;SDS011;19850;49.576;10.880;2023-03-04T00:30:58;10.65;;;9.65;;
15022;SDS011;19850;49.576;10.880;2023-03-04T00:35:02;11.17;;;8.93;;
15022;SDS011;19850;49.576;10.880;2023-03-04T00:39:05;10.70;;;8.87;;
15022;SDS011;19850;49.576;10.880;2023-03-04T00:43:08;11.90;;;9.17;;
15022;SDS011;19850;49.576;10.880;2023-03-04T00:47:11;11.73;;;9.60;;
15022;SDS011;19850;49.576;10.880;2023-03-04T00:51:15;12.50;;;9.83;;
15022;SDS011;19850;49.576;10.880;2023-03-04T00:55:19;11.00;;;8.80;;
15022;SDS011;19850;49.576;10.880;2023-03-04T00:59:22;13.37;;;9.60;;
15022;SDS011;19850;49.576;10.880;2023-03-04T01:03:25;12.20;;;9.43;;
15022;SDS011;19850;49.576;10.880;2023-03-04T01:07:32;12.97;;;9.73;;
15022;SDS011;19850;49.576;10.880;2023-03-04T01:11:35;12.43;;;9.23;;
15022;SDS011;19850;49.576;10.880;2023-03-04T01:15:38;10.67;;;9.17;;
15022;SDS011;19850;49.576;10.880;2023-03-04T01:19:40;11.17;;;8.87;;
15022;SDS011;19850;49.576;10.880;2023-03-04T01:23:44;11.63;;;8.63;;
15022;SDS011;19850;49.576;10.880;2023-03-04T01:27:47;9.80;;;8.37;;
15022;SDS011;19850;49.576;10.880;2023-03-04T01:31:50;9.83;;;8.13;;
15022;SDS011;19850;49.576;10.880;2023-03-04T01:35:53;10.03;;;8.63;;
15022;SDS011;19850;49.576;10.880;2023-03-04T01:39:57;9.37;;;8.20;;
15022;SDS011;19850;49.576;10.880;2023-03-04T01:44:00;9.47;;;7.83;;
15022;SDS011;19850;49.576;10.880;2023-03-04T01:48:03;8.83;;;7.53;;
15022;SDS011;19850;49.576;10.880;2023-03-04T01:52:09;9.17;;;7.43;;
15022;SDS011;19850;49.576;10.880;2023-03-04T01:56:19;9.00;;;7.40;;
15022;SDS011;19850;49.576;10.880;2023-03-04T02:00:27;7.97;;;6.93;;
15022;SDS011;19850;49.576;10.880;2023-03-04T02:04:32;9.00;;;7.50;;
15022;SDS011;19850;49.576;10.880;2023-03-04T02:08:36;8.37;;;7.43;;
15022;SDS011;19850;49.576;10.880;2023-03-04T02:12:40;8.93;;;8.00;;
15022;SDS011;19850;49.576;10.880;2023-03-04T02:16:43;9.67;;;7.63;;
15022;SDS011;19850;49.576;10.880;2023-03-04T02:20:51;9.20;;;7.60;;
15022;SDS011;19850;49.576;10.880;2023-03-04T02:24:58;8.53;;;7.30;;
15022;SDS011;19850;49.576;10.880;2023-03-04T02:29:04;8.43;;;7.17;;
15022;SDS011;19850;49.576;10.880;2023-03-04T02:33:09;9.13;;;7.60;;
15022;SDS011;19850;49.576;10.880;2023-03-04T02:37:16;12.97;;;8.03;;
15022;SDS011;19850;49.576;10.880;2023-03-04T02:41:20;9.53;;;8.53;;
15022;SDS011;19850;49.576;10.880;2023-03-04T02:45:39;9.60;;;8.23;;
15022;SDS011;19850;49.576;10.880;2023-03-04T02:49:43;9.57;;;8.57;;
15022;SDS011;19850;49.576;10.880;2023-03-04T02:53:46;10.00;;;8.63;;
15022;SDS011;19850;49.576;10.880;2023-03-04T02:57:49;9.07;;;8.13;;
15022;SDS011;19850;49.576;10.880;2023-03-04T03:01:53;11.07;;;9.40;;
15022;SDS011;19850;49.576;10.880;2023-03-04T03:05:56;11.40;;;9.53;;
15022;SDS011;19850;49.576;10.880;2023-03-04T03:09:58;12.00;;;9.93;;
15022;SDS011;19850;49.576;10.880;2023-03-04T03:14:01;12.03;;;9.30;;
15022;SDS011;19850;49.576;10.880;2023-03-04T03:18:05;13.50;;;10.60;;
15022;SDS011;19850;49.576;10.880;2023-03-04T03:22:08;13.10;;;9.63;;
15022;SDS011;19850;49.576;10.880;2023-03-04T03:26:12;14.57;;;10.27;;
15022;SDS011;19850;49.576;10.880;2023-03-04T03:30:17;11.47;;;9.13;;
15022;SDS011;19850;49.576;10.880;2023-03-04T03:34:22;13.53;;;10.00;;
15022;SDS011;19850;49.576;10.880;2023-03-04T03:38:24;12.07;;;9.37;;
15022;SDS011;19850;49.576;10.880;2023-03-04T03:42:27;11.17;;;9.47;;
15022;SDS011;19850;49.576;10.880;2023-03-04T03:46:30;12.80;;;9.47;;
15022;SDS011;19850;49.576;10.880;2023-03-04T03:50:34;11.57;;;9.17;;
15022;SDS011;19850;49.576;10.880;2023-03-04T03:54:37;13.30;;;10.07;;
15022;SDS011;19850;49.576;10.880;2023-03-04T03:58:40;13.73;;;10.60;;
15022;SDS011;19850;49.576;10.880;2023-03-04T04:02:43;13.63;;;10.33;;
15022;SDS011;19850;49.576;10.880;2023-03-04T04:06:48;14.37;;;10.37;;
15022;SDS011;19850;49.576;10.880;2023-03-04T04:10:50;14.43;;;10.77;;
15022;SDS011;19850;49.576;10.880;2023-03-04T04:14:53;13.27;;;9.97;;
15022;SDS011;19850;49.576;10.880;2023-03-04T04:18:56;13.63;;;10.07;;
15022;SDS011;19850;49.576;10.880;2023-03-04T04:23:01;13.80;;;9.80;;
15022;SDS011;19850;49.576;10.880;2023-03-04T04:27:04;11.97;;;9.83;;
15022;SDS011;19850;49.576;10.880;2023-03-04T04:31:07;10.23;;;8.60;;
15022;SDS011;19850;49.576;10.880;2023-03-04T04:35:10;13.60;;;10.03;;
15022;SDS011;19850;49.576;10.880;2023-03-04T04:39:16;11.87;;;9.57;;
15022;SDS011;19850;49.576;10.880;2023-03-04T04:43:19;12.87;;;10.43;;
15022;SDS011;19850;49.576;10.880;2023-03-04T04:47:22;12.83;;;10.17;;
15022;SDS011;19850;49.576;10.880;2023-03-04T04:51:24;12.73;;;10.13;;
15022;SDS011;19850;49.576;10.880;2023-03-04T04:55:28;14.03;;;10.57;;
15022;SDS011;19850;49.576;10.880;2023-03-04T04:59:31;13.83;;;11.03;;
15022;SDS011;19850;49.576;10.880;2023-03-04T05:03:34;13.63;;;10.63;;
15022;SDS011;19850;49.576;10.880;2023-03-04T05:07:38;12.17;;;9.77;;
15022;SDS011;19850;49.576;10.880;2023-03-04T05:11:42;14.03;;;10.70;;
15022;SDS011;19850;49.576;10.880;2023-03-04T05:15:45;12.70;;;10.40;;
15022;SDS011;19850;49.576;10.880;2023-03-04T05:19:47;13.73;;;11.03;;
15022;SDS011;19850;49.576;10.880;2023-03-04T05:23:50;14.00;;;10.93;;
15022;SDS011;19850;49.576;10.880;2023-03-04T05:27:54;13.67;;;10.27;;
15022;SDS011;19850;49.576;10.880;2023-03-04T05:31:57;15.27;;;10.83;;
15022;SDS011;19850;49.576;10.880;2023-03-04T05:36:00;13.70;;;10.70;;
15022;SDS011;19850;49.576;10.880;2023-03-04T05:40:03;13.97;;;10.77;;
15022;SDS011;19850;49.576;10.880;2023-03-04T05:44:08;15.47;;;11.67;;
15022;SDS011;19850;49.576;10.880;2023-03-04T05:48:11;15.73;;;11.37;;
15022;SDS011;19850;49.576;10.880;2023-03-04T05:52:20;14.57;;;11.53;;
15022;SDS011;19850;49.576;10.880;2023-03-04T05:56:22;15.07;;;11.63;;
15022;SDS011;19850;49.576;10.880;2023-03-04T06:00:26;16.43;;;11.97;;
15022;SDS011;19850;49.576;10.880;2023-03-04T06:04:29;16.03;;;12.00;;
15022;SDS011;19850;49.576;10.880;2023-03-04T06:08:32;17.70;;;14.07;;
15022;SDS011;19850;49.576;10.880;2023-03-04T06:12:35;18.13;;;14.60;;
15022;SDS011;19850;49.576;10.880;2023-03-04T06:16:40;22.00;;;15.97;;
15022;SDS011;19850;49.576;10.880;2023-03-04T06:20:42;20.10;;;15.57;;
15022;SDS011;19850;49.576;10.880;2023-03-04T06:24:45;19.87;;;14.13;;
15022;SDS011;19850;49.576;10.880;2023-03-04T06:28:48;19.83;;;13.47;;
15022;SDS011;19850;49.576;10.880;2023-03-04T06:32:52;18.30;;;12.93;;
15022;SDS011;19850;49.576;10.880;2023-03-04T06:36:55;17.47;;;12.40;;
15022;SDS011;19850;49.576;10.880;2023-03-04T06:41:07;16.13;;;11.90;;
15022;SDS011;19850;49.576;10.880;2023-03-04T06:45:10;15.87;;;12.07;;
15022;SDS011;19850;49.576;10.880;2023-03-04T06:49:15;16.77;;;12.27;;
15022;SDS011;19850;49.576;10.880;2023-03-04T06:53:17;16.17;;;11.90;;
15022;SDS011;19850;49.576;10.880;2023-03-04T06:57:20;15.83;;;11.73;;
15022;SDS011;19850;49.576;10.880;2023-03-04T07:01:24;16.80;;;12.43;;
15022;SDS011;19850;49.576;10.880;2023-03-04T07:05:32;14.50;;;11.40;;
15022;SDS011;19850;49.576;10.880;2023-03-04T07:09:34;15.00;;;12.40;;
15022;SDS011;19850;49.576;10.880;2023-03-04T07:13:38;16.07;;;12.23;;
15022;SDS011;19850;49.576;10.880;2023-03-04T07:17:41;15.53;;;11.40;;
15022;SDS011;19850;49.576;10.880;2023-03-04T07:21:45;14.57;;;11.10;;
15022;SDS011;19850;49.576;10.880;2023-03-04T07:25:48;14.27;;;10.90;;
15022;SDS011;19850;49.576;10.880;2023-03-04T07:29:51;18.77;;;13.80;;
15022;SDS011;19850;49.576;10.880;2023-03-04T07:33:55;15.03;;;11.87;;
15022;SDS011;19850;49.576;10.880;2023-03-04T07:37:59;12.90;;;10.70;;
15022;SDS011;19850;49.576;10.880;2023-03-04T07:42:04;14.47;;;11.63;;
15022;SDS011;19850;49.576;10.880;2023-03-04T07:46:06;13.90;;;10.97;;
15022;SDS011;19850;49.576;10.880;2023-03-04T07:50:10;13.03;;;11.00;;
15022;SDS011;19850;49.576;10.880;2023-03-04T07:54:15;13.53;;;11.30;;
15022;SDS011;19850;49.576;10.880;2023-03-04T07:58:20;15.03;;;12.03;;
15022;SDS011;19850;49.576;10.880;2023-03-04T08:02:23;14.43;;;11.40;;
15022;SDS011;19850;49.576;10.880;2023-03-04T08:06:28;15.23;;;11.67;;
15022;SDS011;19850;49.576;10.880;2023-03-04T08:10:32;15.13;;;11.57;;
15022;SDS011;19850;49.576;10.880;2023-03-04T08:14:35;15.40;;;11.57;;
15022;SDS011;19850;49.576;10.880;2023-03-04T08:18:38;15.30;;;11.70;;
15022;SDS011;19850;49.576;10.880;2023-03-04T08:22:41;14.70;;;11.17;;
15022;SDS011;19850;49.576;10.880;2023-03-04T08:26:45;15.37;;;11.20;;
15022;SDS011;19850;49.576;10.880;2023-03-04T08:30:51;14.53;;;11.90;;
15022;SDS011;19850;49.576;10.880;2023-03-04T08:34:55;16.30;;;12.70;;
15022;SDS011;19850;49.576;10.880;2023-03-04T08:38:57;17.87;;;12.20;;
15022;SDS011;19850;49.576;10.880;2023-03-04T08:43:02;15.73;;;11.60;;
15022;SDS011;19850;49.576;10.880;2023-03-04T08:47:04;15.10;;;12.40;;
15022;SDS011;19850;49.576;10.880;2023-03-04T08:51:10;16.37;;;12.87;;
15022;SDS011;19850;49.576;10.880;2023-03-04T08:55:14;14.30;;;11.83;;
15022;SDS011;19850;49.576;10.880;2023-03-04T08:59:18;16.47;;;12.17;;
15022;SDS011;19850;49.576;10.880;2023-03-04T09:03:21;15.17;;;12.17;;
15022;SDS011;19850;49.576;10.880;2023-03-04T09:07:24;15.53;;;12.03;;
15022;SDS011;19850;49.576;10.880;2023-03-04T09:11:27;14.70;;;12.27;;
15022;SDS011;19850;49.576;10.880;2023-03-04T09:15:31;16.53;;;12.20;;
15022;SDS011;19850;49.576;10.880;2023-03-04T09:19:36;16.17;;;12.53;;
15022;SDS011;19850;49.576;10.880;2023-03-04T09:23:39;15.60;;;11.97;;
15022;SDS011;19850;49.576;10.880;2023-03-04T09:27:42;14.60;;;12.00;;
15022;SDS011;19850;49.576;10.880;2023-03-04T09:31:46;17.30;;;12.20;;
15022;SDS011;19850;49.576;10.880;2023-03-04T09:35:49;15.63;;;12.33;;
15022;SDS011;19850;49.576;10.880;2023-03-04T09:39:52;17.73;;;12.57;;
15022;SDS011;19850;49.576;10.880;2023-03-04T09:43:55;17.77;;;13.00;;
15022;SDS011;19850;49.576;10.880;2023-03-04T09:47:59;16.73;;;12.17;;
15022;SDS011;19850;49.576;10.880;2023-03-04T09:52:04;17.73;;;12.80;;
15022;SDS011;19850;49.576;10.880;2023-03-04T09:56:11;13.63;;;11.53;;
15022;SDS011;19850;49.576;10.880;2023-03-04T10:00:15;16.43;;;11.67;;
15022;SDS011;19850;49.576;10.880;2023-03-04T10:04:25;14.87;;;11.80;;
15022;SDS011;19850;49.576;10.880;2023-03-04T10:08:34;13.83;;;11.27;;
15022;SDS011;19850;49.576;10.880;2023-03-04T10:12:40;14.93;;;11.40;;
15022;SDS011;19850;49.576;10.880;2023-03-04T10:16:46;12.20;;;10.47;;
15022;SDS011;19850;49.576;10.880;2023-03-04T10:20:54;14.63;;;12.10;;
15022;SDS011;19850;49.576;10.880;2023-03-04T10:25:01;16.63;;;11.23;;
15022;SDS011;19850;49.576;10.880;2023-03-04T10:29:16;15.43;;;11.70;;
15022;SDS011;19850;49.576;10.880;2023-03-04T10:33:21;20.67;;;12.17;;
15022;SDS011;19850;49.576;10.880;2023-03-04T10:41:58;14.33;;;10.63;;
15022;SDS011;19850;49.576;10.880;2023-03-04T10:46:02;18.30;;;11.83;;
15022;SDS011;19850;49.576;10.880;2023-03-04T10:50:05;16.27;;;12.30;;
15022;SDS011;19850;49.576;10.880;2023-03-04T10:54:22;19.33;;;11.33;;
15022;SDS011;19850;49.576;10.880;2023-03-04T10:58:28;14.70;;;10.93;;
15022;SDS011;19850;49.576;10.880;2023-03-04T11:02:31;12.23;;;8.47;;
15022;SDS011;19850;49.576;10.880;2023-03-04T11:06:41;14.37;;;8.73;;
15022;SDS011;19850;49.576;10.880;2023-03-04T11:10:43;13.47;;;10.80;;
15022;SDS011;19850;49.576;10.880;2023-03-04T11:14:48;13.97;;;11.80;;
15022;SDS011;19850;49.576;10.880;2023-03-04T11:18:52;16.53;;;11.00;;
15022;SDS011;19850;49.576;10.880;2023-03-04T11:22:58;12.30;;;11.00;;
15022;SDS011;19850;49.576;10.880;2023-03-04T11:27:05;14.63;;;10.87;;
15022;SDS011;19850;49.576;10.880;2023-03-04T11:31:13;15.13;;;11.03;;
15022;SDS011;19850;49.576;10.880;2023-03-04T11:35:20;13.00;;;11.37;;
15022;SDS011;19850;49.576;10.880;2023-03-04T11:39:27;13.10;;;10.80;;
15022;SDS011;19850;49.576;10.880;2023-03-04T11:43:36;15.60;;;11.47;;
15022;SDS011;19850;49.576;10.880;2023-03-04T11:47:43;19.27;;;10.07;;
15022;SDS011;19850;49.576;10.880;2023-03-04T11:51:53;13.57;;;11.00;;
15022;SDS011;19850;49.576;10.880;2023-03-04T11:56:15;16.80;;;10.30;;
15022;SDS011;19850;49.576;10.880;2023-03-04T12:00:27;11.23;;;9.03;;
15022;SDS011;19850;49.576;10.880;2023-03-04T12:04:41;13.53;;;10.43;;
15022;SDS011;19850;49.576;10.880;2023-03-04T12:08:53;12.17;;;9.90;;
15022;SDS011;19850;49.576;10.880;2023-03-04T12:17:29;15.43;;;10.80;;
15022;SDS011;19850;49.576;10.880;2023-03-04T12:26:06;12.17;;;9.43;;
15022;SDS011;19850;49.576;10.880;2023-03-04T12:30:15;14.37;;;8.53;;
15022;SDS011;19850;49.576;10.880;2023-03-04T12:39:09;12.20;;;9.93;;
15022;SDS011;19850;49.576;10.880;2023-03-04T12:43:31;16.40;;;10.43;;
15022;SDS011;19850;49.576;10.880;2023-03-04T12:47:43;47.03;;;11.83;;
15022;SDS011;19850;49.576;10.880;2023-03-04T12:51:54;14.93;;;9.90;;
15022;SDS011;19850;49.576;10.880;2023-03-04T12:56:04;14.60;;;10.37;;
15022;SDS011;19850;49.576;10.880;2023-03-04T13:00:16;14.47;;;10.33;;
15022;SDS011;19850;49.576;10.880;2023-03-04T13:04:35;18.33;;;11.00;;
15022;SDS011;19850;49.576;10.880;2023-03-04T13:08:50;14.63;;;10.90;;
15022;SDS011;19850;49.576;10.880;2023-03-04T13:12:59;16.97;;;10.30;;
15022;SDS011;19850;49.576;10.880;2023-03-04T13:21:43;13.70;;;10.77;;
15022;SDS011;19850;49.576;10.880;2023-03-04T13:25:48;15.43;;;10.43;;
15022;SDS011;19850;49.576;10.880;2023-03-04T13:29:52;16.23;;;10.10;;
15022;SDS011;19850;49.576;10.880;2023-03-04T13:33:57;13.87;;;9.57;;
15022;SDS011;19850;49.576;10.880;2023-03-04T13:38:01;20.93;;;9.80;;
15022;SDS011;19850;49.576;10.880;2023-03-04T13:46:41;24.00;;;14.80;;
15022;SDS011;19850;49.576;10.880;2023-03-04T13:50:45;16.97;;;10.23;;
15022;SDS011;19850;49.576;10.880;2023-03-04T13:54:48;19.80;;;11.77;;
15022;SDS011;19850;49.576;10.880;2023-03-04T13:58:51;14.03;;;9.30;;
15022;SDS011;19850;49.576;10.880;2023-03-04T14:02:56;15.47;;;9.73;;
15022;SDS011;19850;49.576;10.880;2023-03-04T14:07:18;16.07;;;10.03;;
15022;SDS011;19850;49.576;10.880;2023-03-04T14:11:27;16.07;;;10.93;;
15022;SDS011;19850;49.576;10.880;2023-03-04T14:15:31;13.87;;;9.63;;
15022;SDS011;19850;49.576;10.880;2023-03-04T14:19:37;14.87;;;9.70;;
15022;SDS011;19850;49.576;10.880;2023-03-04T14:23:45;15.77;;;9.10;;
15022;SDS011;19850;49.576;10.880;2023-03-04T14:27:48;12.07;;;8.57;;
15022;SDS011;19850;49.576;10.880;2023-03-04T14:31:51;14.47;;;9.60;;
15022;SDS011;19850;49.576;10.880;2023-03-04T14:35:57;13.20;;;8.97;;
15022;SDS011;19850;49.576;10.880;2023-03-04T14:40:02;15.10;;;9.10;;
15022;SDS011;19850;49.576;10.880;2023-03-04T14:44:07;13.80;;;9.50;;
15022;SDS011;19850;49.576;10.880;2023-03-04T14:48:15;21.07;;;12.67;;
15022;SDS011;19850;49.576;10.880;2023-03-04T14:52:26;15.23;;;9.30;;
15022;SDS011;19850;49.576;10.880;2023-03-04T14:56:34;13.30;;;8.40;;
15022;SDS011;19850;49.576;10.880;2023-03-04T15:00:38;12.43;;;9.23;;
15022;SDS011;19850;49.576;10.880;2023-03-04T15:04:41;12.67;;;8.80;;
15022;SDS011;19850;49.576;10.880;2023-03-04T15:08:45;13.20;;;8.90;;
15022;SDS011;19850;49.576;10.880;2023-03-04T15:12:52;14.93;;;9.27;;
15022;SDS011;19850;49.576;10.880;2023-03-04T15:16:56;14.40;;;8.57;;
15022;SDS011;19850;49.576;10.880;2023-03-04T15:21:00;17.13;;;8.97;;
15022;SDS011;19850;49.576;10.880;2023-03-04T15:25:05;15.00;;;9.00;;
15022;SDS011;19850;49.576;10.880;2023-03-04T15:29:10;13.50;;;8.13;;
15022;SDS011;19850;49.576;10.880;2023-03-04T15:33:15;21.93;;;14.70;;
15022;SDS011;19850;49.576;10.880;2023-03-04T15:37:22;15.77;;;10.23;;
15022;SDS011;19850;49.576;10.880;2023-03-04T15:41:29;14.37;;;9.00;;
15022;SDS011;19850;49.576;10.880;2023-03-04T15:45:32;16.03;;;8.47;;
15022;SDS011;19850;49.576;10.880;2023-03-04T15:49:37;17.67;;;9.50;;
15022;SDS011;19850;49.576;10.880;2023-03-04T15:53:41;16.50;;;9.13;;
15022;SDS011;19850;49.576;10.880;2023-03-04T15:57:48;14.47;;;8.90;;
15022;SDS011;19850;49.576;10.880;2023-03-04T16:01:53;17.17;;;10.70;;
15022;SDS011;19850;49.576;10.880;2023-03-04T16:05:56;18.60;;;10.60;;
15022;SDS011;19850;49.576;10.880;2023-03-04T16:10:01;19.83;;;10.87;;
15022;SDS011;19850;49.576;10.880;2023-03-04T16:14:08;22.40;;;9.70;;
15022;SDS011;19850;49.576;10.880;2023-03-04T16:18:13;16.20;;;9.20;;
15022;SDS011;19850;49.576;10.880;2023-03-04T16:22:17;14.73;;;8.70;;
15022;SDS011;19850;49.576;10.880;2023-03-04T16:26:22;11.10;;;7.50;;
15022;SDS011;19850;49.576;10.880;2023-03-04T16:30:27;17.50;;;7.47;;
15022;SDS011;19850;49.576;10.880;2023-03-04T16:34:30;16.30;;;8.17;;
15022;SDS011;19850;49.576;10.880;2023-03-04T16:38:33;13.60;;;8.73;;
15022;SDS011;19850;49.576;10.880;2023-03-04T16:42:36;16.07;;;8.50;;
15022;SDS011;19850;49.576;10.880;2023-03-04T16:46:40;13.87;;;7.87;;
15022;SDS011;19850;49.576;10.880;2023-03-04T16:50:43;13.57;;;8.00;;
15022;SDS011;19850;49.576;10.880;2023-03-04T16:54:46;14.63;;;8.73;;
15022;SDS011;19850;49.576;10.880;2023-03-04T16:58:49;15.83;;;10.20;;
15022;SDS011;19850;49.576;10.880;2023-03-04T17:02:56;15.13;;;9.07;;
15022;SDS011;19850;49.576;10.880;2023-03-04T17:06:59;15.87;;;7.90;;
15022;SDS011;19850;49.576;10.880;2023-03-04T17:11:02;13.77;;;8.70;;
15022;SDS011;19850;49.576;10.880;2023-03-04T17:15:06;15.93;;;8.07;;
15022;SDS011;19850;49.576;10.880;2023-03-04T17:19:11;13.90;;;7.97;;
15022;SDS011;19850;49.576;10.880;2023-03-04T17:23:13;15.13;;;7.87;;
15022;SDS011;19850;49.576;10.880;2023-03-04T17:27:16;15.10;;;7.07;;
15022;SDS011;19850;49.576;10.880;2023-03-04T17:31:19;11.63;;;7.57;;
15022;SDS011;19850;49.576;10.880;2023-03-04T17:35:24;14.07;;;7.40;;
15022;SDS011;19850;49.576;10.880;2023-03-04T17:39:27;14.32;;;8.25;;
15022;SDS011;19850;49.576;10.880;2023-03-04T17:43:29;15.33;;;7.83;;
15022;SDS011;19850;49.576;10.880;2023-03-04T17:47:32;13.80;;;7.53;;
15022;SDS011;19850;49.576;10.880;2023-03-04T17:51:38;14.80;;;7.13;;
15022;SDS011;19850;49.576;10.880;2023-03-04T17:55:47;12.23;;;7.90;;
15022;SDS011;19850;49.576;10.880;2023-03-04T17:59:50;14.13;;;8.50;;
15022;SDS011;19850;49.576;10.880;2023-03-04T18:03:53;14.27;;;8.57;;
15022;SDS011;19850;49.576;10.880;2023-03-04T18:07:57;13.73;;;7.97;;
15022;SDS011;19850;49.576;10.880;2023-03-04T18:12:00;15.20;;;7.83;;
15022;SDS011;19850;49.576;10.880;2023-03-04T18:16:03;13.27;;;7.00;;
15022;SDS011;19850;49.576;10.880;2023-03-04T18:20:06;11.50;;;7.13;;
15022;SDS011;19850;49.576;10.880;2023-03-04T18:24:11;12.53;;;7.70;;
15022;SDS011;19850;49.576;10.880;2023-03-04T18:28:14;12.40;;;7.10;;
15022;SDS011;19850;49.576;10.880;2023-03-04T18:32:18;13.37;;;8.13;;
15022;SDS011;19850;49.576;10.880;2023-03-04T18:36:20;11.07;;;7.23;;
15022;SDS011;19850;49.576;10.880;2023-03-04T18:40:25;10.90;;;7.13;;
15022;SDS011;19850;49.576;10.880;2023-03-04T18:44:28;16.13;;;8.60;;
15022;SDS011;19850;49.576;10.880;2023-03-04T18:48:32;15.30;;;7.77;;
15022;SDS011;19850;49.576;10.880;2023-03-04T18:52:37;14.80;;;7.40;;
15022;SDS011;19850;49.576;10.880;2023-03-04T18:56:42;11.67;;;7.57;;
15022;SDS011;19850;49.576;10.880;2023-03-04T19:00:46;15.67;;;8.07;;
15022;SDS011;19850;49.576;10.880;2023-03-04T19:04:49;15.43;;;8.17;;
15022;SDS011;19850;49.576;10.880;2023-03-04T19:08:53;15.47;;;8.23;;
15022;SDS011;19850;49.576;10.880;2023-03-04T19:12:58;14.67;;;8.50;;
15022;SDS011;19850;49.576;10.880;2023-03-04T19:17:00;12.40;;;8.40;;
15022;SDS011;19850;49.576;10.880;2023-03-04T19:21:03;13.77;;;8.50;;
15022;SDS011;19850;49.576;10.880;2023-03-04T19:25:07;15.80;;;8.27;;
15022;SDS011;19850;49.576;10.880;2023-03-04T19:29:11;16.53;;;9.67;;
15022;SDS011;19850;49.576;10.880;2023-03-04T19:33:15;18.70;;;9.63;;
15022;SDS011;19850;49.576;10.880;2023-03-04T19:37:18;15.30;;;8.60;;
15022;SDS011;19850;49.576;10.880;2023-03-04T19:41:21;13.93;;;8.20;;
15022;SDS011;19850;49.576;10.880;2023-03-04T19:45:26;15.70;;;7.97;;
15022;SDS011;19850;49.576;10.880;2023-03-04T19:49:29;14.40;;;8.37;;
15022;SDS011;19850;49.576;10.880;2023-03-04T19:53:33;14.13;;;8.33;;
15022;SDS011;19850;49.576;10.880;2023-03-04T19:57:43;13.20;;;8.03;;
15022;SDS011;19850;49.576;10.880;2023-03-04T20:01:56;14.23;;;8.43;;
15022;SDS011;19850;49.576;10.880;2023-03-04T20:06:07;30.60;;;20.35;;
15022;SDS011;19850;49.576;10.880;2023-03-04T20:10:15;21.40;;;12.47;;
15022;SDS011;19850;49.576;10.880;2023-03-04T20:14:29;17.23;;;10.07;;
15022;SDS011;19850;49.576;10.880;2023-03-04T20:18:41;14.43;;;9.00;;
15022;SDS011;19850;49.576;10.880;2023-03-04T20:22:48;13.20;;;9.38;;
15022;SDS011;19850;49.576;10.880;2023-03-04T20:26:52;15.17;;;8.80;;
15022;SDS011;19850;49.576;10.880;2023-03-04T20:31:09;15.27;;;8.90;;
15022;SDS011;19850;49.576;10.880;2023-03-04T20:35:25;12.90;;;8.60;;
15022;SDS011;19850;49.576;10.880;2023-03-04T20:39:29;13.50;;;8.70;;
15022;SDS011;19850;49.576;10.880;2023-03-04T20:43:34;14.80;;;9.50;;
15022;SDS011;19850;49.576;10.880;2023-03-04T20:47:45;17.67;;;10.03;;
15022;SDS011;19850;49.576;10.880;2023-03-04T20:52:00;14.70;;;9.23;;
15022;SDS011;19850;49.576;10.880;2023-03-04T20:56:10;15.25;;;11.13;;
15022;SDS011;19850;49.576;10.880;2023-03-04T21:00:24;17.67;;;10.40;;
15022;SDS011;19850;49.576;10.880;2023-03-04T21:04:31;20.63;;;10.93;;
15022;SDS011;19850;49.576;10.880;2023-03-04T21:08:36;15.87;;;10.57;;
15022;SDS011;19850;49.576;10.880;2023-03-04T21:12:40;16.20;;;11.07;;
15022;SDS011;19850;49.576;10.880;2023-03-04T21:16:43;17.93;;;11.07;;
15022;SDS011;19850;49.576;10.880;2023-03-04T21:20:46;17.67;;;11.20;;
15022;SDS011;19850;49.576;10.880;2023-03-04T21:24:50;16.77;;;11.57;;
15022;SDS011;19850;49.576;10.880;2023-03-04T21:28:54;18.93;;;12.33;;
15022;SDS011;19850;49.576;10.880;2023-03-04T21:32:57;17.67;;;11.30;;
15022;SDS011;19850;49.576;10.880;2023-03-04T21:37:00;18.13;;;11.80;;
15022;SDS011;19850;49.576;10.880;2023-03-04T21:41:09;21.20;;;12.33;;
15022;SDS011;19850;49.576;10.880;2023-03-04T21:45:13;18.00;;;12.23;;
15022;SDS011;19850;49.576;10.880;2023-03-04T21:49:15;16.97;;;11.93;;
15022;SDS011;19850;49.576;10.880;2023-03-04T21:53:18;20.37;;;13.10;;
15022;SDS011;19850;49.576;10.880;2023-03-04T21:57:25;19.67;;;12.40;;
15022;SDS011;19850;49.576;10.880;2023-03-04T22:01:28;18.27;;;12.87;;
15022;SDS011;19850;49.576;10.880;2023-03-04T22:05:30;17.93;;;13.30;;
15022;SDS011;19850;49.576;10.880;2023-03-04T22:09:33;20.37;;;13.00;;
15022;SDS011;19850;49.576;10.880;2023-03-04T22:13:37;17.30;;;12.63;;
15022;SDS011;19850;49.576;10.880;2023-03-04T22:17:41;21.47;;;13.73;;
15022;SDS011;19850;49.576;10.880;2023-03-04T22:21:49;21.73;;;13.70;;
15022;SDS011;19850;49.576;10.880;2023-03-04T22:25:52;21.60;;;13.70;;
15022;SDS011;19850;49.576;10.880;2023-03-04T22:29:57;20.93;;;14.10;;
15022;SDS011;19850;49.576;10.880;2023-03-04T22:34:00;23.10;;;14.30;;
15022;SDS011;19850;49.576;10.880;2023-03-04T22:38:03;21.20;;;14.63;;
15022;SDS011;19850;49.576;10.880;2023-03-04T22:42:06;20.40;;;13.73;;
15022;SDS011;19850;49.576;10.880;2023-03-04T22:46:13;20.53;;;13.97;;
15022;SDS011;19850;49.576;10.880;2023-03-04T22:50:17;21.03;;;14.33;;
15022;SDS011;19850;49.576;10.880;2023-03-04T22:54:21;23.93;;;15.20;;
15022;SDS011;19850;49.576;10.880;2023-03-04T22:58:24;21.33;;;15.23;;
15022;SDS011;19850;49.576;10.880;2023-03-04T23:02:28;21.27;;;15.10;;
15022;SDS011;19850;49.576;10.880;2023-03-04T23:06:31;21.70;;;15.53;;
15022;SDS011;19850;49.576;10.880;2023-03-04T23:10:33;24.80;;;16.17;;
15022;SDS011;19850;49.576;10.880;2023-03-04T23:14:36;22.07;;;15.77;;
15022;SDS011;19850;49.576;10.880;2023-03-04T23:18:41;24.90;;;16.47;;
15022;SDS011;19850;49.576;10.880;2023-03-04T23:22:46;21.83;;;16.50;;
15022;SDS011;19850;49.576;10.880;2023-03-04T23:26:49;25.87;;;16.53;;
15022;SDS011;19850;49.576;10.880;2023-03-04T23:30:53;27.07;;;17.27;;
15022;SDS011;19850;49.576;10.880;2023-03-04T23:34:57;26.93;;;17.27;;
15022;SDS011;19850;49.576;10.880;2023-03-04T23:39:00;27.17;;;16.93;;
15022;SDS011;19850;49.576;10.880;2023-03-04T23:43:03;26.17;;;18.35;;
15022;SDS011;19850;49.576;10.880;2023-03-04T23:47:06;24.47;;;17.80;;
15022;SDS011;19850;49.576;10.880;2023-03-04T23:51:11;25.90;;;18.43;;
15022;SDS011;19850;49.576;10.880;2023-03-04T23:55:14;31.67;;;18.90;;
15022;SDS011;19850;49.576;10.880;2023-03-04T23:59:18;26.73;;;17.90;;
